createdAt,value
2023-04-27T00:00:16.798Z,97939.09
2023-04-27T00:02:18.320Z,97931.13
2023-04-27T00:04:20.691Z,97934.75
2023-04-27T00:06:22.237Z,97936.94
2023-04-27T00:08:23.588Z,97946.47
2023-04-27T00:10:24.893Z,97929.59
2023-04-27T00:12:26.215Z,97930.56
2023-04-27T00:14:28.774Z,97928.84
2023-04-27T00:16:30.150Z,97921.81
2023-04-27T00:18:31.475Z,97921.09
2023-04-27T00:20:33.911Z,97920.16
2023-04-27T00:22:35.244Z,97926.13
2023-04-27T00:24:36.577Z,97918.88
2023-04-27T00:26:37.882Z,97915.78
2023-04-27T00:28:39.170Z,97919.41
2023-04-27T00:30:40.642Z,97925.69
2023-04-27T00:32:42.649Z,97919.00
2023-04-27T00:34:44.009Z,97925.16
2023-04-27T00:36:45.366Z,97925.25
2023-04-27T00:38:46.663Z,97924.44
2023-04-27T00:40:47.995Z,97920.19
2023-04-27T00:42:49.311Z,97922.75
2023-04-27T00:44:50.775Z,97916.78
2023-04-27T00:46:52.255Z,97925.31
2023-04-27T00:48:53.549Z,97921.91
2023-04-27T00:50:54.856Z,97921.84
2023-04-27T00:52:56.702Z,97926.00
2023-04-27T00:54:58.001Z,97920.81
2023-04-27T00:56:59.706Z,97922.34
2023-04-27T00:59:01.029Z,97928.16
2023-04-27T01:01:03.779Z,97928.97
2023-04-27T01:03:05.226Z,97922.97
2023-04-27T01:05:07.198Z,97928.94
2023-04-27T01:07:08.574Z,97932.28
2023-04-27T01:09:11.078Z,97927.94
2023-04-27T01:11:12.485Z,97931.34
2023-04-27T01:13:13.787Z,97931.44
2023-04-27T01:15:15.120Z,97932.38
2023-04-27T01:17:18.343Z,97929.88
2023-04-27T01:19:19.668Z,97934.25
2023-04-27T01:21:21.400Z,97935.19
2023-04-27T01:23:23.831Z,97930.13
2023-04-27T01:25:25.216Z,97933.69
2023-04-27T01:27:26.525Z,97936.25
2023-04-27T01:29:28.020Z,97927.78
2023-04-27T01:31:29.375Z,97937.19
2023-04-27T01:33:30.696Z,97936.41
2023-04-27T01:35:32.156Z,97938.19
2023-04-27T01:37:33.458Z,97936.47
2023-04-27T01:39:34.788Z,97946.63
2023-04-27T01:41:36.134Z,97946.47
2023-04-27T01:43:37.405Z,97941.28
2023-04-27T01:45:38.767Z,97948.94
2023-04-27T01:47:40.152Z,97940.44
2023-04-27T01:49:41.544Z,97947.25
2023-04-27T01:51:42.851Z,97946.41
2023-04-27T01:53:44.152Z,97946.41
2023-04-27T01:55:45.482Z,97943.00
2023-04-27T01:57:46.915Z,97942.22
2023-04-27T01:59:48.211Z,97941.38
2023-04-27T02:01:49.553Z,97943.09
2023-04-27T02:03:51.199Z,97948.19
2023-04-27T02:05:52.567Z,97947.19
2023-04-27T02:07:54.003Z,97951.75
2023-04-27T02:09:55.452Z,97946.75
2023-04-27T02:11:56.756Z,97955.34
2023-04-27T02:13:58.088Z,97954.56
2023-04-27T02:16:02.089Z,97955.44
2023-04-27T02:18:03.612Z,97956.22
2023-04-27T02:20:07.025Z,97954.50
2023-04-27T02:22:08.320Z,97954.50
2023-04-27T02:24:09.693Z,97950.25
2023-04-27T02:26:11.857Z,97947.66
2023-04-27T02:28:13.892Z,97956.06
2023-04-27T02:30:15.633Z,97954.28
2023-04-27T02:32:17.378Z,97951.53
2023-04-27T02:34:18.683Z,97956.56
2023-04-27T02:36:20.021Z,97953.00
2023-04-27T02:38:21.348Z,97956.16
2023-04-27T02:40:22.667Z,97958.66
2023-04-27T02:42:23.964Z,97957.84
2023-04-27T02:44:25.610Z,97954.53
2023-04-27T02:46:27.454Z,97952.97
2023-04-27T02:48:28.893Z,97954.78
2023-04-27T02:50:30.194Z,97954.94
2023-04-27T02:52:31.572Z,97958.47
2023-04-27T02:54:32.916Z,97962.81
2023-04-27T02:56:34.231Z,97958.69
2023-04-27T02:58:35.669Z,97964.66
2023-04-27T03:00:37.425Z,97962.94
2023-04-27T03:02:38.787Z,97958.69
2023-04-27T03:04:40.402Z,97963.09
2023-04-27T03:06:41.795Z,97969.09
2023-04-27T03:08:43.149Z,97970.84
2023-04-27T03:10:44.554Z,97969.19
2023-04-27T03:12:45.947Z,97970.09
2023-04-27T03:14:47.240Z,97975.16
2023-04-27T03:16:51.960Z,97967.50
2023-04-27T03:18:53.267Z,97972.59
2023-04-27T03:20:54.614Z,97973.31
2023-04-27T03:22:55.936Z,97974.13
2023-04-27T03:24:57.256Z,97969.81
2023-04-27T03:26:58.616Z,97968.91
2023-04-27T03:28:59.938Z,97985.81
2023-04-27T03:31:02.204Z,97969.66
2023-04-27T03:33:03.787Z,97978.13
2023-04-27T03:35:05.187Z,97973.88
2023-04-27T03:37:06.650Z,97980.69
2023-04-27T03:39:08.180Z,97984.88
2023-04-27T03:41:09.502Z,97980.56
2023-04-27T03:43:10.952Z,97980.50
2023-04-27T03:45:12.375Z,97990.66
2023-04-27T03:47:13.816Z,97998.38
2023-04-27T03:49:15.329Z,97995.03
2023-04-27T03:51:16.877Z,97997.53
2023-04-27T03:53:18.167Z,98007.56
2023-04-27T03:55:19.472Z,98004.97
2023-04-27T03:57:21.547Z,98004.91
2023-04-27T03:59:22.834Z,98005.81
2023-04-27T04:01:24.944Z,98011.69
2023-04-27T04:03:26.481Z,98010.84
2023-04-27T04:05:27.955Z,98015.19
2023-04-27T04:07:29.259Z,98014.41
2023-04-27T04:09:30.616Z,98010.31
2023-04-27T04:11:31.958Z,98012.13
2023-04-27T04:13:33.366Z,98010.56
2023-04-27T04:15:34.712Z,98015.78
2023-04-27T04:17:36.117Z,98011.59
2023-04-27T04:19:37.421Z,98021.94
2023-04-27T04:21:38.738Z,98020.31
2023-04-27T04:23:41.223Z,98023.84
2023-04-27T04:25:43.272Z,98034.06
2023-04-27T04:27:45.001Z,98029.81
2023-04-27T04:29:46.340Z,98029.88
2023-04-27T04:31:47.759Z,98031.56
2023-04-27T04:33:49.215Z,98029.03
2023-04-27T04:35:50.524Z,98028.09
2023-04-27T04:37:51.828Z,98028.91
2023-04-27T04:39:53.150Z,98034.91
2023-04-27T04:41:54.606Z,98031.47
2023-04-27T04:43:56.070Z,98026.25
2023-04-27T04:45:57.382Z,98033.00
2023-04-27T04:48:01.037Z,98032.97
2023-04-27T04:50:02.580Z,98031.19
2023-04-27T04:52:06.686Z,98032.88
2023-04-27T04:54:08.020Z,98043.03
2023-04-27T04:56:09.335Z,98044.69
2023-04-27T04:58:10.786Z,98048.81
2023-04-27T05:00:13.318Z,98044.53
2023-04-27T05:02:14.710Z,98047.00
2023-04-27T05:04:16.409Z,98038.38
2023-04-27T05:06:17.837Z,98050.25
2023-04-27T05:08:19.133Z,98046.78
2023-04-27T05:10:20.437Z,98037.34
2023-04-27T05:12:24.760Z,98039.78
2023-04-27T05:14:26.108Z,98042.31
2023-04-27T05:16:27.629Z,98043.13
2023-04-27T05:18:28.963Z,98053.34
2023-04-27T05:20:30.374Z,98045.69
2023-04-27T05:22:31.671Z,98048.31
2023-04-27T05:24:33.013Z,98044.09
2023-04-27T05:26:34.315Z,98044.97
2023-04-27T05:28:35.748Z,98042.41
2023-04-27T05:30:37.076Z,98044.13
2023-04-27T05:32:38.592Z,98045.03
2023-04-27T05:34:41.146Z,98051.09
2023-04-27T05:36:42.557Z,98046.09
2023-04-27T05:38:43.891Z,98048.75
2023-04-27T05:40:45.209Z,98049.69
2023-04-27T05:42:46.540Z,98048.91
2023-04-27T05:44:47.838Z,98058.34
2023-04-27T05:46:49.136Z,98060.09
2023-04-27T05:48:50.785Z,98057.59
2023-04-27T05:50:52.109Z,98056.88
2023-04-27T05:52:53.398Z,98052.69
2023-04-27T05:54:54.748Z,98060.38
2023-04-27T05:56:56.222Z,98058.72
2023-04-27T05:58:57.574Z,98051.97
2023-04-27T06:00:58.918Z,98056.28
2023-04-27T06:03:00.363Z,98053.66
2023-04-27T06:05:02.341Z,98051.00
2023-04-27T06:07:04.222Z,98043.25
2023-04-27T06:09:05.525Z,98055.13
2023-04-27T06:11:07.020Z,98049.09
2023-04-27T06:13:08.350Z,98049.94
2023-04-27T06:15:09.952Z,98047.31
2023-04-27T06:17:11.261Z,98048.94
2023-04-27T06:19:12.832Z,98051.47
2023-04-27T06:21:14.381Z,98050.53
2023-04-27T06:23:15.764Z,98045.34
2023-04-27T06:25:17.085Z,98042.53
2023-04-27T06:27:18.490Z,98051.88
2023-04-27T06:29:19.791Z,98052.94
2023-04-27T06:31:21.123Z,98048.63
2023-04-27T06:33:22.556Z,98058.72
2023-04-27T06:35:23.916Z,98055.28
2023-04-27T06:37:25.414Z,98051.78
2023-04-27T06:39:26.734Z,98052.56
2023-04-27T06:41:28.030Z,98046.53
2023-04-27T06:43:29.314Z,98051.56
2023-04-27T06:45:30.635Z,98048.97
2023-04-27T06:47:31.932Z,98051.78
2023-04-27T06:49:33.305Z,98047.03
2023-04-27T06:51:34.602Z,98041.28
2023-04-27T06:53:36.255Z,98050.50
2023-04-27T06:55:37.646Z,98050.06
2023-04-27T06:57:39.016Z,98051.22
2023-04-27T06:59:40.380Z,98057.34
2023-04-27T07:01:41.847Z,98052.44
2023-04-27T07:03:43.401Z,98043.13
2023-04-27T07:05:44.825Z,98056.03
2023-04-27T07:07:46.114Z,98056.16
2023-04-27T07:09:47.411Z,98056.22
2023-04-27T07:11:48.713Z,98059.72
2023-04-27T07:13:49.995Z,98059.81
2023-04-27T07:15:51.341Z,98059.03
2023-04-27T07:17:55.917Z,98060.81
2023-04-27T07:19:57.271Z,98067.63
2023-04-27T07:21:58.623Z,98071.13
2023-04-27T07:23:59.946Z,98070.28
2023-04-27T07:26:02.202Z,98067.78
2023-04-27T07:28:04.370Z,98066.16
2023-04-27T07:30:07.216Z,98070.66
2023-04-27T07:32:08.816Z,98064.59
2023-04-27T07:34:11.339Z,98071.31
2023-04-27T07:36:12.642Z,98072.91
2023-04-27T07:38:13.952Z,98075.34
2023-04-27T07:40:16.782Z,98081.22
2023-04-27T07:42:18.558Z,98073.44
2023-04-27T07:44:20.027Z,98077.50
2023-04-27T07:46:21.810Z,98076.47
2023-04-27T07:48:24.625Z,98084.78
2023-04-27T07:50:26.255Z,98084.59
2023-04-27T07:52:27.583Z,98076.69
2023-04-27T07:54:29.003Z,98079.13
2023-04-27T07:56:30.449Z,98081.50
2023-04-27T07:58:31.832Z,98078.78
2023-04-27T08:00:33.699Z,98078.66
2023-04-27T08:02:35.124Z,98081.91
2023-04-27T08:04:37.077Z,98079.50
2023-04-27T08:06:39.347Z,98081.34
2023-04-27T08:08:40.848Z,98085.69
2023-04-27T08:10:42.970Z,98081.56
2023-04-27T08:12:44.381Z,98080.63
2023-04-27T08:14:45.852Z,98084.75
2023-04-27T08:16:47.173Z,98081.41
2023-04-27T08:18:48.516Z,98087.44
2023-04-27T08:20:49.868Z,98082.34
2023-04-27T08:22:51.168Z,98080.06
2023-04-27T08:24:52.460Z,98082.91
2023-04-27T08:26:53.764Z,98085.66
2023-04-27T08:28:57.431Z,98079.88
2023-04-27T08:30:58.868Z,98089.44
2023-04-27T08:33:00.321Z,98092.97
2023-04-27T08:35:01.684Z,98090.53
2023-04-27T08:37:04.388Z,98087.25
2023-04-27T08:39:07.756Z,98090.75
2023-04-27T08:41:20.689Z,98086.59
2023-04-27T08:43:23.332Z,98085.75
2023-04-27T08:45:24.679Z,98087.50
2023-04-27T08:47:35.086Z,98094.38
2023-04-27T08:49:43.743Z,98096.09
2023-04-27T08:51:45.087Z,98091.84
2023-04-27T08:53:46.763Z,98090.16
2023-04-27T08:55:48.093Z,98095.28
2023-04-27T08:57:49.428Z,98096.16
2023-04-27T08:59:50.752Z,98091.94
2023-04-27T09:01:52.071Z,98094.44
2023-04-27T09:03:53.516Z,98092.75
2023-04-27T09:06:04.589Z,98095.28
2023-04-27T09:08:08.243Z,98092.72
2023-04-27T09:10:09.674Z,98101.19
2023-04-27T09:12:11.419Z,98096.09
2023-04-27T09:14:12.735Z,98102.84
2023-04-27T09:16:14.614Z,98095.97
2023-04-27T09:18:16.452Z,98098.44
2023-04-27T09:20:18.815Z,98094.88
2023-04-27T09:22:22.906Z,98092.19
2023-04-27T09:24:24.422Z,98095.50
2023-04-27T09:26:25.966Z,98088.59
2023-04-27T09:28:31.048Z,98084.16
2023-04-27T09:30:32.524Z,98084.88
2023-04-27T09:32:33.865Z,98089.16
2023-04-27T09:34:35.213Z,98093.41
2023-04-27T09:36:36.515Z,98086.53
2023-04-27T09:38:37.824Z,98089.13
2023-04-27T09:40:40.310Z,98086.59
2023-04-27T09:42:41.701Z,98080.66
2023-04-27T09:44:43.038Z,98084.88
2023-04-27T09:46:45.623Z,98089.16
2023-04-27T09:48:46.934Z,98085.88
2023-04-27T09:50:48.252Z,98082.56
2023-04-27T09:52:49.658Z,98087.75
2023-04-27T09:54:50.951Z,98080.94
2023-04-27T09:56:52.249Z,98083.53
2023-04-27T09:58:54.114Z,98087.81
2023-04-27T10:00:55.912Z,98085.38
2023-04-27T10:02:57.644Z,98091.38
2023-04-27T10:04:59.168Z,98081.25
2023-04-27T10:07:02.286Z,98086.41
2023-04-27T10:09:06.400Z,98083.06
2023-04-27T10:11:07.738Z,98077.97
2023-04-27T10:13:09.110Z,98079.72
2023-04-27T10:15:10.457Z,98080.66
2023-04-27T10:17:11.972Z,98078.16
2023-04-27T10:19:13.897Z,98073.81
2023-04-27T10:21:15.924Z,98067.06
2023-04-27T10:23:17.244Z,98078.19
2023-04-27T10:25:28.216Z,98074.88
2023-04-27T10:27:29.548Z,98074.91
2023-04-27T10:29:30.914Z,98074.06
2023-04-27T10:31:33.009Z,98068.09
2023-04-27T10:33:34.416Z,98066.41
2023-04-27T10:35:35.877Z,98074.94
2023-04-27T10:37:37.170Z,98071.56
2023-04-27T10:39:48.502Z,98073.25
2023-04-27T10:41:51.752Z,98070.66
2023-04-27T10:43:53.058Z,98070.66
2023-04-27T10:45:54.420Z,98070.59
2023-04-27T10:47:55.850Z,98070.66
2023-04-27T10:49:57.184Z,98069.81
2023-04-27T10:51:58.562Z,98067.06
2023-04-27T10:53:59.952Z,98072.06
2023-04-27T10:56:01.266Z,98070.34
2023-04-27T10:58:02.669Z,98065.25
2023-04-27T11:00:05.263Z,98078.81
2023-04-27T11:02:06.603Z,98076.19
2023-04-27T11:04:07.974Z,98072.66
2023-04-27T11:06:09.366Z,98068.34
2023-04-27T11:08:10.726Z,98070.78
2023-04-27T11:10:12.202Z,98064.66
2023-04-27T11:12:14.004Z,98062.78
2023-04-27T11:14:16.517Z,98057.72
2023-04-27T11:16:19.488Z,98056.94
2023-04-27T11:18:20.911Z,98056.94
2023-04-27T11:20:23.151Z,98062.84
2023-04-27T11:22:24.451Z,98059.31
2023-04-27T11:24:25.751Z,98060.34
2023-04-27T11:26:27.404Z,98068.13
2023-04-27T11:28:28.737Z,98066.56
2023-04-27T11:30:30.087Z,98071.75
2023-04-27T11:32:31.953Z,98069.06
2023-04-27T11:34:38.924Z,98075.88
2023-04-27T11:36:40.215Z,98074.19
2023-04-27T11:38:41.583Z,98067.25
2023-04-27T11:40:43.054Z,98071.41
2023-04-27T11:42:47.110Z,98069.66
2023-04-27T11:44:48.417Z,98062.72
2023-04-27T11:46:49.823Z,98064.41
2023-04-27T11:48:51.391Z,98071.31
2023-04-27T11:50:53.499Z,98060.94
2023-04-27T11:52:55.948Z,98066.06
2023-04-27T11:54:57.415Z,98065.41
2023-04-27T11:56:58.719Z,98069.88
2023-04-27T11:59:00.015Z,98066.59
2023-04-27T12:01:02.269Z,98066.72
2023-04-27T12:03:03.833Z,98066.03
2023-04-27T12:05:06.225Z,98070.41
2023-04-27T12:07:08.747Z,98068.81
2023-04-27T12:09:10.216Z,98071.41
2023-04-27T12:11:11.547Z,98076.50
2023-04-27T12:13:12.925Z,98079.91
2023-04-27T12:15:14.272Z,98077.16
2023-04-27T12:17:15.985Z,98080.31
2023-04-27T12:19:17.536Z,98075.97
2023-04-27T12:21:18.996Z,98086.97
2023-04-27T12:23:20.375Z,98079.41
2023-04-27T12:25:21.704Z,98082.88
2023-04-27T12:27:23.114Z,98081.28
2023-04-27T12:29:24.652Z,98082.97
2023-04-27T12:31:27.880Z,98082.16
2023-04-27T12:33:29.366Z,98081.28
2023-04-27T12:35:32.167Z,98085.50
2023-04-27T12:37:33.765Z,98086.28
2023-04-27T12:39:35.058Z,98078.56
2023-04-27T12:41:36.662Z,98084.47
2023-04-27T12:43:38.303Z,98080.25
2023-04-27T12:45:39.861Z,98070.91
2023-04-27T12:47:58.229Z,98077.66
2023-04-27T12:50:02.758Z,98078.56
2023-04-27T12:52:04.097Z,98081.97
2023-04-27T12:54:05.534Z,98081.97
2023-04-27T12:56:07.000Z,98081.22
2023-04-27T12:58:08.426Z,98085.44
2023-04-27T13:00:10.707Z,98093.13
2023-04-27T13:02:12.007Z,98088.06
2023-04-27T13:04:13.641Z,98082.88
2023-04-27T13:06:15.337Z,98085.44
2023-04-27T13:08:17.072Z,98091.34
2023-04-27T13:10:18.381Z,98087.09
2023-04-27T13:12:19.732Z,98089.56
2023-04-27T13:14:21.201Z,98078.38
2023-04-27T13:16:24.687Z,98086.97
2023-04-27T13:18:26.381Z,98087.81
2023-04-27T13:20:27.766Z,98086.72
2023-04-27T13:22:29.087Z,98078.84
2023-04-27T13:24:30.389Z,98080.81
2023-04-27T13:26:31.728Z,98075.50
2023-04-27T13:28:33.035Z,98083.91
2023-04-27T13:30:34.377Z,98074.47
2023-04-27T13:32:35.745Z,98067.63
2023-04-27T13:34:37.075Z,98065.94
2023-04-27T13:36:38.400Z,98069.34
2023-04-27T13:38:39.796Z,98065.13
2023-04-27T13:40:41.203Z,98060.97
2023-04-27T13:42:42.597Z,98077.50
2023-04-27T13:44:43.918Z,98069.94
2023-04-27T13:46:45.421Z,98073.28
2023-04-27T13:48:46.743Z,98073.25
2023-04-27T13:50:48.312Z,98076.84
2023-04-27T13:52:49.863Z,98078.44
2023-04-27T13:54:51.274Z,98067.31
2023-04-27T13:56:52.622Z,98071.50
2023-04-27T13:58:53.954Z,98068.03
2023-04-27T14:00:55.286Z,98064.63
2023-04-27T14:02:56.860Z,98070.56
2023-04-27T14:04:58.400Z,98059.63
2023-04-27T14:07:00.004Z,98059.81
2023-04-27T14:09:01.311Z,98074.38
2023-04-27T14:11:02.625Z,98073.50
2023-04-27T14:13:03.990Z,98071.75
2023-04-27T14:15:05.305Z,98073.31
2023-04-27T14:17:06.758Z,98068.22
2023-04-27T14:19:08.896Z,98062.03
2023-04-27T14:21:10.459Z,98060.97
2023-04-27T14:23:11.818Z,98055.69
2023-04-27T14:25:13.167Z,98054.78
2023-04-27T14:27:14.464Z,98057.47
2023-04-27T14:29:16.123Z,98060.09
2023-04-27T14:31:17.732Z,98054.00
2023-04-27T14:33:19.074Z,98054.72
2023-04-27T14:35:20.936Z,98047.81
2023-04-27T14:37:22.270Z,98052.94
2023-04-27T14:39:23.596Z,98054.78
2023-04-27T14:41:24.892Z,98049.16
2023-04-27T14:43:26.855Z,98050.13
2023-04-27T14:45:36.716Z,98053.66
2023-04-27T14:47:45.561Z,98045.16
2023-04-27T14:49:46.977Z,98050.25
2023-04-27T14:51:48.284Z,98054.53
2023-04-27T14:53:49.574Z,98060.53
2023-04-27T14:55:50.891Z,98053.78
2023-04-27T14:57:52.263Z,98065.72
2023-04-27T14:59:53.771Z,98056.44
2023-04-27T15:01:55.735Z,98061.69
2023-04-27T15:03:58.070Z,98053.31
2023-04-27T15:05:59.649Z,98065.25
2023-04-27T15:08:02.215Z,98061.84
2023-04-27T15:10:04.132Z,98059.09
2023-04-27T15:12:07.499Z,98058.19
2023-04-27T15:14:08.861Z,98055.69
2023-04-27T15:16:10.253Z,98061.59
2023-04-27T15:18:11.968Z,98055.59
2023-04-27T15:20:16.503Z,98060.78
2023-04-27T15:22:17.800Z,98063.34
2023-04-27T15:24:19.163Z,98073.59
2023-04-27T15:26:20.485Z,98075.34
2023-04-27T15:28:21.783Z,98076.25
2023-04-27T15:30:23.133Z,98077.22
2023-04-27T15:32:29.784Z,98075.66
2023-04-27T15:34:31.274Z,98068.09
2023-04-27T15:36:33.524Z,98067.13
2023-04-27T15:38:34.815Z,98078.25
2023-04-27T15:40:36.132Z,98075.59
2023-04-27T15:42:37.467Z,98067.88
2023-04-27T15:44:38.804Z,98069.50
2023-04-27T15:46:40.175Z,98072.06
2023-04-27T15:48:41.529Z,98067.78
2023-04-27T15:50:42.873Z,98066.03
2023-04-27T15:52:44.205Z,98065.25
2023-04-27T15:54:45.506Z,98069.63
2023-04-27T15:56:46.983Z,98066.28
2023-04-27T15:58:48.368Z,98068.03
2023-04-27T16:00:49.681Z,98068.97
2023-04-27T16:02:51.272Z,98061.34
2023-04-27T16:04:56.495Z,98062.25
2023-04-27T16:06:58.078Z,98062.25
2023-04-27T16:08:59.369Z,98063.97
2023-04-27T16:11:03.576Z,98056.28
2023-04-27T16:13:04.918Z,98056.28
2023-04-27T16:15:08.518Z,98052.03
2023-04-27T16:17:11.602Z,98047.78
2023-04-27T16:19:13.496Z,98053.78
2023-04-27T16:21:15.204Z,98045.31
2023-04-27T16:23:17.068Z,98039.47
2023-04-27T16:25:18.365Z,98045.50
2023-04-27T16:27:20.805Z,98045.63
2023-04-27T16:29:22.123Z,98038.06
2023-04-27T16:31:23.626Z,98047.56
2023-04-27T16:33:25.719Z,98046.81
2023-04-27T16:35:29.109Z,98044.31
2023-04-27T16:37:30.498Z,98041.81
2023-04-27T16:39:32.633Z,98038.47
2023-04-27T16:41:33.964Z,98035.91
2023-04-27T16:43:35.298Z,98040.97
2023-04-27T16:45:36.695Z,98044.38
2023-04-27T16:47:38.095Z,98039.25
2023-04-27T16:49:39.394Z,98044.38
2023-04-27T16:51:40.870Z,98032.44
2023-04-27T16:53:42.180Z,98034.16
2023-04-27T16:55:43.460Z,98035.91
2023-04-27T16:57:47.662Z,98044.47
2023-04-27T16:59:48.963Z,98036.06
2023-04-27T17:01:51.345Z,98033.56
2023-04-27T17:03:53.034Z,98043.00
2023-04-27T17:05:54.419Z,98041.31
2023-04-27T17:07:55.983Z,98043.84
2023-04-27T17:09:57.316Z,98042.03
2023-04-27T17:12:01.282Z,98047.09
2023-04-27T17:14:02.680Z,98044.41
2023-04-27T17:16:11.505Z,98047.78
2023-04-27T17:18:12.868Z,98047.72
2023-04-27T17:20:14.232Z,98043.41
2023-04-27T17:22:18.357Z,98049.41
2023-04-27T17:24:19.651Z,98040.94
2023-04-27T17:26:21.597Z,98041.88
2023-04-27T17:28:22.955Z,98048.72
2023-04-27T17:30:24.292Z,98042.78
2023-04-27T17:32:26.302Z,98047.78
2023-04-27T17:34:27.635Z,98052.88
2023-04-27T17:36:31.792Z,98052.06
2023-04-27T17:38:33.095Z,98052.03
2023-04-27T17:40:34.423Z,98049.66
2023-04-27T17:42:35.853Z,98050.50
2023-04-27T17:44:39.318Z,98050.50
2023-04-27T17:46:40.748Z,98052.25
2023-04-27T17:48:43.014Z,98049.19
2023-04-27T17:50:44.315Z,97927.59
2023-04-27T17:52:47.511Z,98057.31
2023-04-27T17:54:48.815Z,98050.34
2023-04-27T17:56:50.110Z,98048.09
2023-04-27T17:58:51.426Z,98056.03
2023-04-27T18:00:58.638Z,98052.75
2023-04-27T18:03:00.251Z,98053.63
2023-04-27T18:05:04.049Z,98061.28
2023-04-27T18:07:05.355Z,98061.25
2023-04-27T18:09:06.719Z,98059.84
2023-04-27T18:11:08.032Z,98057.78
2023-04-27T18:13:09.312Z,98053.97
2023-04-27T18:15:10.634Z,98064.44
2023-04-27T18:17:14.684Z,98067.78
2023-04-27T18:19:23.085Z,98066.78
2023-04-27T18:21:27.977Z,98071.72
2023-04-27T18:23:29.268Z,98074.31
2023-04-27T18:25:30.710Z,98074.16
2023-04-27T18:27:33.009Z,98076.00
2023-04-27T18:29:34.367Z,98076.34
2023-04-27T18:31:36.257Z,98079.56
2023-04-27T18:33:37.850Z,98081.28
2023-04-27T18:35:39.181Z,98084.59
2023-04-27T18:37:40.493Z,98086.03
2023-04-27T18:39:42.861Z,98088.31
2023-04-27T18:41:44.181Z,98089.81
2023-04-27T18:43:48.598Z,98089.16
2023-04-27T18:45:49.908Z,98090.66
2023-04-27T18:47:51.670Z,98104.31
2023-04-27T18:49:53.067Z,98105.13
2023-04-27T18:51:54.381Z,98104.22
2023-04-27T18:53:55.703Z,98107.00
2023-04-27T18:55:57.069Z,98098.59
2023-04-27T18:57:58.376Z,98101.94
2023-04-27T19:00:00.367Z,98102.47
2023-04-27T19:02:02.211Z,98100.69
2023-04-27T19:04:03.757Z,98111.50
2023-04-27T19:06:05.868Z,98118.88
2023-04-27T19:08:07.207Z,98122.16
2023-04-27T19:10:14.577Z,98125.47
2023-04-27T19:12:16.110Z,98118.59
2023-04-27T19:14:19.127Z,98123.75
2023-04-27T19:16:20.583Z,98123.28
2023-04-27T19:18:21.961Z,98110.75
2023-04-27T19:20:23.330Z,98116.78
2023-04-27T19:22:24.695Z,98109.16
2023-04-27T19:24:26.135Z,98122.06
2023-04-27T19:26:29.635Z,98125.56
2023-04-27T19:28:34.215Z,98121.91
2023-04-27T19:30:35.780Z,98115.94
2023-04-27T19:32:37.147Z,98126.13
2023-04-27T19:34:38.498Z,98126.69
2023-04-27T19:36:39.842Z,98123.63
2023-04-27T19:38:41.277Z,98129.31
2023-04-27T19:40:45.670Z,98129.13
2023-04-27T19:42:46.963Z,98127.19
2023-04-27T19:44:51.477Z,98134.81
2023-04-27T19:46:52.976Z,98135.31
2023-04-27T19:48:54.429Z,98125.84
2023-04-27T19:50:55.769Z,98130.94
2023-04-27T19:52:57.103Z,98128.50
2023-04-27T19:54:59.916Z,98128.50
2023-04-27T19:57:01.897Z,98129.34
2023-04-27T19:59:03.202Z,98131.81
2023-04-27T20:01:04.518Z,98122.44
2023-04-27T20:03:07.060Z,98129.16
2023-04-27T20:05:11.575Z,98124.09
2023-04-27T20:07:13.019Z,98118.63
2023-04-27T20:09:17.190Z,98119.44
2023-04-27T20:11:18.492Z,98111.41
2023-04-27T20:13:20.043Z,98119.38
2023-04-27T20:15:21.374Z,98118.69
2023-04-27T20:17:25.618Z,98111.09
2023-04-27T20:19:27.004Z,98110.34
2023-04-27T20:21:29.334Z,98112.91
2023-04-27T20:23:30.674Z,98108.78
2023-04-27T20:25:32.126Z,98103.34
2023-04-27T20:27:33.515Z,98097.22
2023-04-27T20:29:34.803Z,98101.53
2023-04-27T20:31:36.337Z,98106.38
2023-04-27T20:33:37.684Z,98096.03
2023-04-27T20:35:39.106Z,98102.94
2023-04-27T20:37:41.922Z,98099.47
2023-04-27T20:39:43.261Z,98103.72
2023-04-27T20:41:44.546Z,98100.38
2023-04-27T20:43:45.990Z,98101.88
2023-04-27T20:45:47.394Z,98097.66
2023-04-27T20:47:48.812Z,98095.94
2023-04-27T20:49:50.368Z,98095.84
2023-04-27T20:51:51.974Z,98103.16
2023-04-27T20:53:53.270Z,98101.78
2023-04-27T20:55:54.901Z,98105.59
2023-04-27T20:57:56.265Z,98100.09
2023-04-27T20:59:57.591Z,98102.81
2023-04-27T21:01:58.884Z,98096.41
2023-04-27T21:04:00.266Z,98096.47
2023-04-27T21:06:01.599Z,98092.72
2023-04-27T21:08:02.903Z,98105.06
2023-04-27T21:10:06.860Z,98101.16
2023-04-27T21:12:08.719Z,98102.19
2023-04-27T21:14:10.013Z,98094.66
2023-04-27T21:16:11.458Z,98091.28
2023-04-27T21:18:22.409Z,98087.16
2023-04-27T21:20:30.047Z,98087.25
2023-04-27T21:22:31.389Z,98087.31
2023-04-27T21:24:32.793Z,98088.22
2023-04-27T21:26:34.150Z,98085.72
2023-04-27T21:28:35.465Z,98089.97
2023-04-27T21:30:36.806Z,98073.88
2023-04-27T21:32:38.266Z,98077.28
2023-04-27T21:34:39.620Z,98079.09
2023-04-27T21:36:41.016Z,98083.31
2023-04-27T21:38:42.306Z,98079.03
2023-04-27T21:40:43.643Z,98071.38
2023-04-27T21:42:44.944Z,98076.47
2023-04-27T21:44:47.135Z,98072.16
2023-04-27T21:46:48.481Z,98072.16
2023-04-27T21:48:49.850Z,98071.34
2023-04-27T21:50:51.140Z,98078.13
2023-04-27T21:52:52.446Z,98075.56
2023-04-27T21:54:53.856Z,98073.91
2023-04-27T21:56:55.152Z,98074.72
2023-04-27T21:58:56.487Z,98073.94
2023-04-27T22:00:57.809Z,98071.25
2023-04-27T22:02:59.260Z,98077.41
2023-04-27T22:05:00.884Z,98071.50
2023-04-27T22:07:02.455Z,98063.09
2023-04-27T22:09:04.754Z,98070.81
2023-04-27T22:11:07.972Z,98068.34
2023-04-27T22:13:18.807Z,98067.59
2023-04-27T22:15:21.248Z,98077.91
2023-04-27T22:17:22.568Z,98073.66
2023-04-27T22:19:25.140Z,98075.34
2023-04-27T22:21:28.885Z,98077.94
2023-04-27T22:23:31.193Z,98077.97
2023-04-27T22:25:32.528Z,98072.84
2023-04-27T22:27:42.138Z,98071.13
2023-04-27T22:29:46.089Z,98063.50
2023-04-27T22:31:47.449Z,98069.50
2023-04-27T22:33:48.785Z,98067.84
2023-04-27T22:35:50.130Z,98069.63
2023-04-27T22:37:51.490Z,98061.09
2023-04-27T22:39:52.785Z,98066.16
2023-04-27T22:41:54.115Z,98071.25
2023-04-27T22:43:55.609Z,98068.69
2023-04-27T22:45:56.955Z,98070.34
2023-04-27T22:47:58.307Z,98063.59
2023-04-27T22:50:02.199Z,98068.69
2023-04-27T22:52:04.163Z,98066.09
2023-04-27T22:54:05.662Z,98062.69
2023-04-27T22:56:07.068Z,98063.50
2023-04-27T22:58:08.359Z,98056.69
2023-04-27T23:00:11.277Z,98056.66
2023-04-27T23:02:13.042Z,98055.75
2023-04-27T23:04:15.660Z,98052.28
2023-04-27T23:06:17.546Z,98055.59
2023-04-27T23:08:18.850Z,98058.84
2023-04-27T23:10:20.147Z,98053.72
2023-04-27T23:12:22.048Z,98053.66
2023-04-27T23:14:23.354Z,98041.66
2023-04-27T23:16:25.844Z,98049.34
2023-04-27T23:18:27.296Z,98051.00
2023-04-27T23:20:29.297Z,98050.13
2023-04-27T23:22:30.814Z,98044.16
2023-04-27T23:24:32.140Z,98048.41
2023-04-27T23:26:33.437Z,98049.34
2023-04-27T23:28:34.833Z,98054.47
2023-04-27T23:30:36.484Z,98042.66
2023-04-27T23:32:37.824Z,98051.16
2023-04-27T23:34:39.354Z,98046.13
2023-04-27T23:36:41.805Z,98045.34
2023-04-27T23:38:43.144Z,98043.66
2023-04-27T23:40:44.521Z,98042.84
2023-04-27T23:42:45.839Z,98038.59
2023-04-27T23:44:47.148Z,98039.44
2023-04-27T23:46:48.458Z,98039.44
2023-04-27T23:48:49.800Z,98033.53
2023-04-27T23:50:51.137Z,98041.22